Temp: 16.8°C   Baro: 1024.7mb
  Wind: 0.9mph   Dir: N (352°)
  Rain: 7.0mm (0.0mm/hr)
  Solar: 21W/m2  Hum: 67%

Historic data

Bath Spa Weather Station Historical Data
Daily Summary for August 04, 2022 Units:  Both    English   Metric
Daily Weekly Monthly Yearly Custom
  High: Low: Average:
Temperature: 73.6 °F /  23.1 °C 55.9 °F /  13.3 °C 63.7 °F /  17.6 °C
Dew Point: 58.1 °F /  14.5 °C 47.6 °F /  8.7 °C 53.4 °F /  11.9 °C
Humidity: 91% 44% 71%
Wind Speed: 9.4mph /  15.1km/h - 3.1mph /  5km/h
Wind Gust: 16mph /  25.7km/h - -
Wind- - WNW
Pressure: 30.13 in /  1020.2 hPa 29.96 in /  1014.4 hPa -
Precipitation: 0.00 in /  0 mm    
Historical Graphs
 
 
Tabular Data for August 04, 2022
Time Temperature Dew Point Pressure Wind Wind Speed Wind Gust Humidity Rainfall Rate (Hourly) solar
00:09 61.2 °F /  16.2 °C 56.1 °F /  13.4 °C 29.97in /  1014.8hPa West 2.4mph /  3.9km/h 5mph /  8km/h 83.2% 0.00in /  0mm 0 W/m2
00:14 61.2 °F /  16.2 °C 56.3 °F /  13.5 °C 29.97in /  1014.8hPa West 2mph /  3.2km/h 5mph /  8km/h 84% 0.00in /  0mm 0 W/m2
00:19 61.2 °F /  16.2 °C 56.3 °F /  13.5 °C 29.97in /  1014.8hPa West 2mph /  3.2km/h 4mph /  6.4km/h 84% 0.00in /  0mm 0 W/m2
00:24 61 °F /  16.1 °C 56.1 °F /  13.4 °C 29.97in /  1014.8hPa West 2.3mph /  3.7km/h 4mph /  6.4km/h 84% 0.00in /  0mm 0 W/m2
00:29 60.7 °F /  15.9 °C 55.9 °F /  13.3 °C 29.97in /  1014.8hPa West 1.3mph /  2.1km/h 4mph /  6.4km/h 84% 0.00in /  0mm 0 W/m2
00:34 60.5 °F /  15.8 °C 55.7 °F /  13.2 °C 29.97in /  1014.8hPa West 2mph /  3.2km/h 4mph /  6.4km/h 84% 0.00in /  0mm 0 W/m2
00:39 60.3 °F /  15.7 °C 55.8 °F /  13.2 °C 29.97in /  1014.8hPa West 2.7mph /  4.3km/h 4mph /  6.4km/h 84.8% 0.00in /  0mm 0 W/m2
00:44 60.2 °F /  15.7 °C 55.7 °F /  13.2 °C 29.97in /  1014.8hPa West 2.1mph /  3.4km/h 4mph /  6.4km/h 85% 0.00in /  0mm 0 W/m2
00:49 60.1 °F /  15.6 °C 55.6 °F /  13.1 °C 29.97in /  1014.8hPa West 1.4mph /  2.3km/h 3mph /  4.8km/h 85% 0.00in /  0mm 0 W/m2
00:54 60 °F /  15.6 °C 55.5 °F /  13.1 °C 29.97in /  1014.8hPa West 1.3mph /  2.1km/h 3mph /  4.8km/h 85% 0.00in /  0mm 0 W/m2
00:59 60 °F /  15.6 °C 55.6 °F /  13.1 °C 29.97in /  1014.8hPa West 0.9mph /  1.4km/h 3mph /  4.8km/h 85.2% 0.00in /  0mm 0 W/m2
01:04 60 °F /  15.6 °C 55.8 °F /  13.2 °C 29.97in /  1014.8hPa West 1.6mph /  2.6km/h 3mph /  4.8km/h 86% 0.00in /  0mm 0 W/m2
01:09 59.9 °F /  15.5 °C 55.8 °F /  13.2 °C 29.97in /  1014.8hPa West 1.9mph /  3.1km/h 3mph /  4.8km/h 86% 0.00in /  0mm 0 W/m2
01:14 59.9 °F /  15.5 °C 55.8 °F /  13.2 °C 29.97in /  1014.8hPa West 1.7mph /  2.7km/h 3mph /  4.8km/h 86% 0.00in /  0mm 0 W/m2
01:19 59.9 °F /  15.5 °C 55.8 °F /  13.2 °C 29.97in /  1014.8hPa West 0.8mph /  1.3km/h 3mph /  4.8km/h 86% 0.00in /  0mm 0 W/m2
01:24 59.7 °F /  15.4 °C 55.6 °F /  13.1 °C 29.97in /  1014.8hPa West 1.3mph /  2.1km/h 3mph /  4.8km/h 86% 0.00in /  0mm 0 W/m2
01:28 59.7 °F /  15.4 °C 55.6 °F /  13.1 °C 29.96in /  1014.4hPa West 1.7mph /  2.7km/h 3mph /  4.8km/h 86% 0.00in /  0mm 0 W/m2
01:34 59.7 °F /  15.4 °C 55.6 °F /  13.1 °C 29.97in /  1014.8hPa West 2mph /  3.2km/h 3mph /  4.8km/h 86% 0.00in /  0mm 0 W/m2
01:39 59.7 °F /  15.4 °C 55.6 °F /  13.1 °C 29.97in /  1014.8hPa West 1.3mph /  2.1km/h 3mph /  4.8km/h 86% 0.00in /  0mm 0 W/m2
01:44 59.7 °F /  15.4 °C 55.6 °F /  13.1 °C 29.97in /  1014.8hPa West 1.3mph /  2.1km/h 3mph /  4.8km/h 86% 0.00in /  0mm 0 W/m2
01:49 59.7 °F /  15.4 °C 55.6 °F /  13.1 °C 29.97in /  1014.8hPa West 0.6mph /  1km/h 2mph /  3.2km/h 86% 0.00in /  0mm 0 W/m2
01:54 59.5 °F /  15.3 °C 55.4 °F /  13 °C 29.97in /  1014.8hPa West 0.9mph /  1.4km/h 2mph /  3.2km/h 86% 0.00in /  0mm 0 W/m2
01:59 59.5 °F /  15.3 °C 55.4 °F /  13 °C 29.97in /  1014.8hPa Calm     86% 0.00in /  0mm 0 W/m2
02:04 59.4 °F /  15.2 °C 55.2 °F /  12.9 °C 29.96in /  1014.4hPa Calm     86% 0.00in /  0mm 0 W/m2
02:09 59.4 °F /  15.2 °C 55.2 °F /  12.9 °C 29.97in /  1014.8hPa Calm     86% 0.00in /  0mm 0 W/m2
02:14 59.2 °F /  15.1 °C 55 °F /  12.8 °C 29.97in /  1014.8hPa Calm     86% 0.00in /  0mm 0 W/m2
02:19 59 °F /  15 °C 54.9 °F /  12.7 °C 29.96in /  1014.4hPa West 1.2mph /  1.9km/h 2mph /  3.2km/h 86% 0.00in /  0mm 0 W/m2
02:24 58.8 °F /  14.9 °C 54.9 °F /  12.7 °C 29.96in /  1014.4hPa West 1.2mph /  1.9km/h 3mph /  4.8km/h 86.8% 0.00in /  0mm 0 W/m2
02:29 58.8 °F /  14.9 °C 55 °F /  12.8 °C 29.96in /  1014.4hPa West 2mph /  3.2km/h 4mph /  6.4km/h 87% 0.00in /  0mm 0 W/m2
02:34 58.8 °F /  14.9 °C 55 °F /  12.8 °C 29.96in /  1014.4hPa West 1mph /  1.6km/h 3mph /  4.8km/h 87% 0.00in /  0mm 0 W/m2
02:39 58.6 °F /  14.8 °C 54.9 °F /  12.7 °C 29.96in /  1014.4hPa West 1.7mph /  2.7km/h 3mph /  4.8km/h 87% 0.00in /  0mm 0 W/m2
02:44 58.6 °F /  14.8 °C 54.9 °F /  12.7 °C 29.96in /  1014.4hPa West 1.1mph /  1.8km/h 3mph /  4.8km/h 87% 0.00in /  0mm 0 W/m2
02:49 58.6 °F /  14.8 °C 54.8 °F /  12.7 °C 29.96in /  1014.4hPa West 0.9mph /  1.4km/h 2mph /  3.2km/h 87% 0.00in /  0mm 0 W/m2
02:54 58.5 °F /  14.7 °C 54.7 °F /  12.6 °C 29.96in /  1014.4hPa West 2mph /  3.2km/h 3mph /  4.8km/h 87% 0.00in /  0mm 0 W/m2
02:59 58.5 °F /  14.7 °C 54.8 °F /  12.7 °C 29.96in /  1014.4hPa West 1.5mph /  2.4km/h 2mph /  3.2km/h 87% 0.00in /  0mm 0 W/m2
03:04 58.5 °F /  14.7 °C 54.7 °F /  12.6 °C 29.96in /  1014.4hPa West 1.7mph /  2.7km/h 3mph /  4.8km/h 87% 0.00in /  0mm 0 W/m2
03:09 58.5 °F /  14.7 °C 54.7 °F /  12.6 °C 29.96in /  1014.4hPa West 1.6mph /  2.6km/h 3mph /  4.8km/h 87% 0.00in /  0mm 0 W/m2
03:14 58.5 °F /  14.7 °C 54.7 °F /  12.6 °C 29.96in /  1014.4hPa West 0.5mph /  0.8km/h 2mph /  3.2km/h 87% 0.00in /  0mm 0 W/m2
03:19 58.4 °F /  14.7 °C 54.7 °F /  12.6 °C 29.96in /  1014.4hPa West 1.1mph /  1.8km/h 3mph /  4.8km/h 87.4% 0.00in /  0mm 0 W/m2
03:24 58.3 °F /  14.6 °C 54.7 °F /  12.6 °C 29.96in /  1014.4hPa West 0.7mph /  1.1km/h 3mph /  4.8km/h 88% 0.00in /  0mm 0 W/m2
03:29 58.3 °F /  14.6 °C 54.5 °F /  12.5 °C 29.96in /  1014.4hPa West 0.2mph /  0.3km/h 2mph /  3.2km/h 87.2% 0.00in /  0mm 0 W/m2
03:34 58.1 °F /  14.5 °C 54.3 °F /  12.4 °C 29.96in /  1014.4hPa Calm   1mph /  1.6km/h 87% 0.00in /  0mm 0 W/m2
03:39 58 °F /  14.4 °C 54.2 °F /  12.3 °C 29.96in /  1014.4hPa West 1.6mph /  2.6km/h 2mph /  3.2km/h 87.2% 0.00in /  0mm 0 W/m2
03:44 57.8 °F /  14.3 °C 54.1 °F /  12.3 °C 29.96in /  1014.4hPa West 1.1mph /  1.8km/h 2mph /  3.2km/h 87.8% 0.00in /  0mm 0 W/m2
03:49 57.7 °F /  14.3 °C 54.1 °F /  12.3 °C 29.96in /  1014.4hPa West 2mph /  3.2km/h 4mph /  6.4km/h 88% 0.00in /  0mm 0 W/m2
03:54 57.6 °F /  14.2 °C 54 °F /  12.2 °C 29.96in /  1014.4hPa West 0.7mph /  1.1km/h 3mph /  4.8km/h 88% 0.00in /  0mm 0 W/m2
03:59 57.4 °F /  14.1 °C 53.8 °F /  12.1 °C 29.96in /  1014.4hPa West 0.7mph /  1.1km/h 2mph /  3.2km/h 88% 0.00in /  0mm 0 W/m2
04:04 57.2 °F /  14 °C 53.6 °F /  12 °C 29.96in /  1014.4hPa West 0.5mph /  0.8km/h 1mph /  1.6km/h 88% 0.00in /  0mm 0 W/m2
04:09 57 °F /  13.9 °C 53.4 °F /  11.9 °C 29.96in /  1014.4hPa West 0.8mph /  1.3km/h 2mph /  3.2km/h 88% 0.00in /  0mm 0 W/m2
04:14 57 °F /  13.9 °C 53.4 °F /  11.9 °C 29.96in /  1014.4hPa Calm   2mph /  3.2km/h 88% 0.00in /  0mm 0 W/m2
04:18 56.8 °F /  13.8 °C 53.5 °F /  11.9 °C 29.96in /  1014.4hPa Calm     88.8% 0.00in /  0mm 0 W/m2
04:24 56.8 °F /  13.8 °C 53.2 °F /  11.8 °C 29.96in /  1014.4hPa West 1.2mph /  1.9km/h 2mph /  3.2km/h 88% 0.00in /  0mm 0 W/m2
04:29 56.8 °F /  13.8 °C 53.4 °F /  11.9 °C 29.96in /  1014.4hPa West 0.4mph /  0.6km/h 2mph /  3.2km/h 88.6% 0.00in /  0mm 0 W/m2
04:34 56.7 °F /  13.7 °C 53.4 °F /  11.9 °C 29.96in /  1014.4hPa Calm     89% 0.00in /  0mm 0 W/m2
04:39 56.7 °F /  13.7 °C 53.4 °F /  11.9 °C 29.96in /  1014.4hPa Calm     89% 0.00in /  0mm 0 W/m2
04:44 56.7 °F /  13.7 °C 53.4 °F /  11.9 °C 29.96in /  1014.4hPa Calm     89% 0.00in /  0mm 0 W/m2
04:49 56.5 °F /  13.6 °C 53.2 °F /  11.8 °C 29.96in /  1014.4hPa Calm     89% 0.00in /  0mm 0 W/m2
04:54 56.5 °F /  13.6 °C 53.2 °F /  11.8 °C 29.96in /  1014.4hPa West 0.6mph /  1km/h 2mph /  3.2km/h 89% 0.00in /  0mm 0 W/m2
04:59 56.2 °F /  13.4 °C 53 °F /  11.7 °C 29.96in /  1014.4hPa West 1.2mph /  1.9km/h 3mph /  4.8km/h 89% 0.00in /  0mm 0 W/m2
05:04 56.2 °F /  13.4 °C 53 °F /  11.7 °C 29.96in /  1014.4hPa West 2.4mph /  3.9km/h 4mph /  6.4km/h 89% 0.00in /  0mm 0 W/m2
05:09 56.3 °F /  13.5 °C 53.1 °F /  11.7 °C 29.96in /  1014.4hPa West 2.9mph /  4.7km/h 4mph /  6.4km/h 89% 0.00in /  0mm 0 W/m2
05:14 56.5 °F /  13.6 °C 53.3 °F /  11.8 °C 29.97in /  1014.8hPa West 2.5mph /  4km/h 4mph /  6.4km/h 89.3% 0.00in /  0mm 0 W/m2
05:19 56.5 °F /  13.6 °C 53.5 °F /  11.9 °C 29.97in /  1014.8hPa West 2.5mph /  4km/h 4mph /  6.4km/h 89.8% 0.00in /  0mm 0 W/m2
05:24 56.5 °F /  13.6 °C 53.6 °F /  12 °C 29.97in /  1014.8hPa West 1.6mph /  2.6km/h 4mph /  6.4km/h 90% 0.00in /  0mm 0 W/m2
05:29 56.5 °F /  13.6 °C 53.6 °F /  12 °C 29.97in /  1014.8hPa West 1.6mph /  2.6km/h 3mph /  4.8km/h 90% 0.00in /  0mm 0 W/m2
05:34 56.5 °F /  13.6 °C 53.6 °F /  12 °C 29.97in /  1014.8hPa West 1.8mph /  2.9km/h 3mph /  4.8km/h 90% 0.00in /  0mm 0 W/m2
05:39 56.5 °F /  13.6 °C 53.6 °F /  12 °C 29.97in /  1014.8hPa West 1.2mph /  1.9km/h 3mph /  4.8km/h 90% 0.00in /  0mm 0 W/m2
05:44 56.5 °F /  13.6 °C 53.6 °F /  12 °C 29.97in /  1014.8hPa Calm     90% 0.00in /  0mm 5 W/m2
05:49 56.5 °F /  13.6 °C 53.6 °F /  12 °C 29.97in /  1014.8hPa Calm     90% 0.00in /  0mm 11 W/m2
05:54 56.5 °F /  13.6 °C 53.6 °F /  12 °C 29.97in /  1014.8hPa Calm     90% 0.00in /  0mm 18 W/m2
05:59 56.5 °F /  13.6 °C 53.6 °F /  12 °C 29.97in /  1014.8hPa Calm     90% 0.00in /  0mm 18 W/m2
06:04 56.4 °F /  13.6 °C 53.5 °F /  11.9 °C 29.97in /  1014.8hPa Calm     90% 0.00in /  0mm 18 W/m2
06:09 56.2 °F /  13.4 °C 53.3 °F /  11.8 °C 29.97in /  1014.8hPa West 0.4mph /  0.6km/h 3mph /  4.8km/h 90% 0.00in /  0mm 19 W/m2
06:14 56.1 °F /  13.4 °C 53.2 °F /  11.8 °C 29.97in /  1014.8hPa West 2.5mph /  4km/h 4mph /  6.4km/h 90% 0.00in /  0mm 19 W/m2
06:19 56 °F /  13.3 °C 53.3 °F /  11.8 °C 29.97in /  1014.8hPa West 2.4mph /  3.9km/h 4mph /  6.4km/h 90.4% 0.00in /  0mm 25 W/m2
06:24 55.9 °F /  13.3 °C 53.4 °F /  11.9 °C 29.98in /  1015.1hPa West 0.4mph /  0.6km/h 2mph /  3.2km/h 91% 0.00in /  0mm 33 W/m2
06:29 55.9 °F /  13.3 °C 53.4 °F /  11.9 °C 29.98in /  1015.1hPa Calm   1mph /  1.6km/h 91% 0.00in /  0mm 40 W/m2
06:34 55.9 °F /  13.3 °C 53.4 °F /  11.9 °C 29.98in /  1015.1hPa West 1.3mph /  2.1km/h 3mph /  4.8km/h 91% 0.00in /  0mm 40 W/m2
06:39 56.1 °F /  13.4 °C 53.6 °F /  12 °C 29.98in /  1015.1hPa West 2.2mph /  3.5km/h 4mph /  6.4km/h 91% 0.00in /  0mm 42 W/m2
06:44 56.2 °F /  13.4 °C 53.7 °F /  12.1 °C 29.98in /  1015.1hPa West 0.9mph /  1.4km/h 3mph /  4.8km/h 91% 0.00in /  0mm 47 W/m2
06:49 56.4 °F /  13.6 °C 53.9 °F /  12.2 °C 29.98in /  1015.1hPa West 1.7mph /  2.7km/h 3mph /  4.8km/h 91% 0.00in /  0mm 53 W/m2
06:54 56.5 °F /  13.6 °C 54 °F /  12.2 °C 29.98in /  1015.1hPa West 1.6mph /  2.6km/h 3mph /  4.8km/h 91% 0.00in /  0mm 54 W/m2
06:59 56.6 °F /  13.7 °C 54 °F /  12.2 °C 29.98in /  1015.1hPa West 2mph /  3.2km/h 3mph /  4.8km/h 91% 0.00in /  0mm 63 W/m2
07:04 56.7 °F /  13.7 °C 54.2 °F /  12.3 °C 29.98in /  1015.1hPa West 1.3mph /  2.1km/h 3mph /  4.8km/h 91% 0.00in /  0mm 69 W/m2
07:09 56.8 °F /  13.8 °C 54.3 °F /  12.4 °C 29.98in /  1015.1hPa West 2mph /  3.2km/h 4mph /  6.4km/h 91% 0.00in /  0mm 84 W/m2
07:14 56.9 °F /  13.8 °C 54.4 °F /  12.4 °C 29.98in /  1015.1hPa West 1.4mph /  2.3km/h 3mph /  4.8km/h 91% 0.00in /  0mm 120 W/m2
07:19 57.2 °F /  14 °C 54.7 °F /  12.6 °C 29.99in /  1015.5hPa West 1.7mph /  2.7km/h 3mph /  4.8km/h 91% 0.00in /  0mm 128 W/m2
07:24 57.4 °F /  14.1 °C 54.9 °F /  12.7 °C 29.99in /  1015.5hPa West 1.2mph /  1.9km/h 2mph /  3.2km/h 91% 0.00in /  0mm 109 W/m2
07:29 57.7 °F /  14.3 °C 55.2 °F /  12.9 °C 29.99in /  1015.5hPa West 1.8mph /  2.9km/h 3mph /  4.8km/h 91% 0.00in /  0mm 181 W/m2
07:34 58 °F /  14.4 °C 55.3 °F /  12.9 °C 29.99in /  1015.5hPa West 3.4mph /  5.5km/h 4mph /  6.4km/h 91% 0.00in /  0mm 214 W/m2
07:39 58.4 °F /  14.7 °C 55.7 °F /  13.2 °C 29.99in /  1015.5hPa WNW 2.9mph /  4.7km/h 6mph /  9.7km/h 91% 0.00in /  0mm 232 W/m2
07:44 58.7 °F /  14.8 °C 56 °F /  13.3 °C 30.00in /  1015.8hPa WNW 2mph /  3.2km/h 4mph /  6.4km/h 91% 0.00in /  0mm 227 W/m2
07:49 59.2 °F /  15.1 °C 56.5 °F /  13.6 °C 29.99in /  1015.5hPa WNW 1.2mph /  1.9km/h 3mph /  4.8km/h 91% 0.00in /  0mm 221 W/m2
07:54 59.3 °F /  15.2 °C 56.5 °F /  13.6 °C 29.99in /  1015.5hPa WNW 1.2mph /  1.9km/h 3mph /  4.8km/h 90% 0.00in /  0mm 248 W/m2
07:59 59.6 °F /  15.3 °C 56.8 °F /  13.8 °C 30.00in /  1015.8hPa WNW 1.6mph /  2.6km/h 3mph /  4.8km/h 90% 0.00in /  0mm 248 W/m2
08:04 60 °F /  15.6 °C 57.1 °F /  13.9 °C 30.00in /  1015.8hPa WNW 1.4mph /  2.3km/h 4mph /  6.4km/h 90% 0.00in /  0mm 190 W/m2
08:09 60.3 °F /  15.7 °C 57 °F /  13.9 °C 30.00in /  1015.8hPa WNW 1.4mph /  2.3km/h 4mph /  6.4km/h 89% 0.00in /  0mm 149 W/m2
08:14 60.3 °F /  15.7 °C 57 °F /  13.9 °C 30.01in /  1016.1hPa WNW 1.2mph /  1.9km/h 5mph /  8km/h 89% 0.00in /  0mm 160 W/m2
08:19 60.4 °F /  15.8 °C 57.2 °F /  14 °C 30.01in /  1016.1hPa WNW 1.3mph /  2.1km/h 3mph /  4.8km/h 89% 0.00in /  0mm 199 W/m2
08:24 60.5 °F /  15.8 °C 57.2 °F /  14 °C 30.01in /  1016.1hPa WNW 2.5mph /  4km/h 5mph /  8km/h 88.8% 0.00in /  0mm 216 W/m2
08:29 60.8 °F /  16 °C 57.2 °F /  14 °C 30.01in /  1016.1hPa WNW 1.3mph /  2.1km/h 5mph /  8km/h 88% 0.00in /  0mm 294 W/m2
08:33 61.2 °F /  16.2 °C 57.6 °F /  14.2 °C 30.01in /  1016.1hPa WNW 2mph /  3.2km/h 5mph /  8km/h 88% 0.00in /  0mm 364 W/m2
08:39 61.5 °F /  16.4 °C 57.9 °F /  14.4 °C 30.01in /  1016.1hPa WNW 1.2mph /  1.9km/h 4mph /  6.4km/h 88% 0.00in /  0mm 193 W/m2
08:44 61.6 °F /  16.4 °C 57.8 °F /  14.3 °C 30.01in /  1016.1hPa WNW 2.5mph /  4km/h 5mph /  8km/h 87.4% 0.00in /  0mm 200 W/m2
08:49 61.9 °F /  16.6 °C 57.9 °F /  14.4 °C 30.01in /  1016.1hPa WNW 1.5mph /  2.4km/h 3mph /  4.8km/h 87% 0.00in /  0mm 218 W/m2
08:54 62.1 °F /  16.7 °C 57.7 °F /  14.3 °C 30.01in /  1016.1hPa WNW 3.6mph /  5.8km/h 5mph /  8km/h 86% 0.00in /  0mm 276 W/m2
08:59 62.1 °F /  16.7 °C 57.7 °F /  14.3 °C 30.01in /  1016.1hPa WNW 2.4mph /  3.9km/h 6mph /  9.7km/h 86% 0.00in /  0mm 399 W/m2
09:04 62.2 °F /  16.8 °C 57.8 °F /  14.3 °C 30.01in /  1016.1hPa WNW 2.3mph /  3.7km/h 6mph /  9.7km/h 85.4% 0.00in /  0mm 373 W/m2
09:09 62.6 °F /  17 °C 58.1 °F /  14.5 °C 30.01in /  1016.1hPa WNW 2.3mph /  3.7km/h 5mph /  8km/h 84.8% 0.00in /  0mm 461 W/m2
09:14 63 °F /  17.2 °C 57.9 °F /  14.4 °C 30.01in /  1016.1hPa NW 3.1mph /  5km/h 6mph /  9.7km/h 83.6% 0.00in /  0mm 461 W/m2
09:19 62.8 °F /  17.1 °C 57.3 °F /  14.1 °C 30.01in /  1016.1hPa NW 2.4mph /  3.9km/h 5mph /  8km/h 82.2% 0.00in /  0mm 255 W/m2
09:24 62.9 °F /  17.2 °C 57.3 °F /  14.1 °C 30.01in /  1016.1hPa WNW 2.7mph /  4.3km/h 7mph /  11.3km/h 82% 0.00in /  0mm 475 W/m2
09:29 63.1 °F /  17.3 °C 57 °F /  13.9 °C 30.01in /  1016.1hPa WNW 3.5mph /  5.6km/h 6mph /  9.7km/h 80.4% 0.00in /  0mm 601 W/m2
09:34 63.4 °F /  17.4 °C 56.7 °F /  13.7 °C 30.01in /  1016.1hPa NW 4.5mph /  7.2km/h 8mph /  12.9km/h 79% 0.00in /  0mm 601 W/m2
09:39 63.6 °F /  17.6 °C 56.7 °F /  13.7 °C 30.01in /  1016.1hPa NNW 2.2mph /  3.5km/h 5mph /  8km/h 78.2% 0.00in /  0mm 207 W/m2
09:44 63.7 °F /  17.6 °C 56.7 °F /  13.7 °C 30.02in /  1016.5hPa NNW 2.7mph /  4.3km/h 6mph /  9.7km/h 78% 0.00in /  0mm 109 W/m2
09:49 63.9 °F /  17.7 °C 56.8 °F /  13.8 °C 30.02in /  1016.5hPa NNW 2.1mph /  3.4km/h 4mph /  6.4km/h 78% 0.00in /  0mm 116 W/m2
09:54 63.9 °F /  17.7 °C 56.8 °F /  13.8 °C 30.02in /  1016.5hPa NNW 2.8mph /  4.5km/h 6mph /  9.7km/h 78% 0.00in /  0mm 179 W/m2
09:59 63.8 °F /  17.7 °C 56.4 °F /  13.6 °C 30.02in /  1016.5hPa NNW 1.6mph /  2.6km/h 4mph /  6.4km/h 77% 0.00in /  0mm 308 W/m2
10:04 63.9 °F /  17.7 °C 56.6 °F /  13.7 °C 30.02in /  1016.5hPa NNW 2mph /  3.2km/h 4mph /  6.4km/h 77% 0.00in /  0mm 323 W/m2
10:09 64.1 °F /  17.8 °C 56.6 °F /  13.7 °C 30.02in /  1016.5hPa NNW 2.8mph /  4.5km/h 6mph /  9.7km/h 76.6% 0.00in /  0mm 360 W/m2
10:14 64.2 °F /  17.9 °C 56.5 °F /  13.6 °C 30.02in /  1016.5hPa NW 3.6mph /  5.8km/h 7mph /  11.3km/h 76% 0.00in /  0mm 759 W/m2
10:19 64.4 °F /  18 °C 56.6 °F /  13.7 °C 30.02in /  1016.5hPa NW 1.2mph /  1.9km/h 4mph /  6.4km/h 76% 0.00in /  0mm 327 W/m2
10:24 64.8 °F /  18.2 °C 56.9 °F /  13.8 °C 30.02in /  1016.5hPa NW 3.2mph /  5.1km/h 6mph /  9.7km/h 75.6% 0.00in /  0mm 209 W/m2
10:29 64.7 °F /  18.2 °C 56.5 °F /  13.6 °C 30.02in /  1016.5hPa NW 2.6mph /  4.2km/h 6mph /  9.7km/h 74.6% 0.00in /  0mm 171 W/m2
10:34 64.6 °F /  18.1 °C 56.1 °F /  13.4 °C 30.02in /  1016.5hPa NW 3.6mph /  5.8km/h 6mph /  9.7km/h 74% 0.00in /  0mm 183 W/m2
10:39 64.4 °F /  18 °C 55.9 °F /  13.3 °C 30.02in /  1016.5hPa NW 2.6mph /  4.2km/h 5mph /  8km/h 74% 0.00in /  0mm 225 W/m2
10:44 64.5 °F /  18.1 °C 56.3 °F /  13.5 °C 30.02in /  1016.5hPa NW 1.8mph /  2.9km/h 6mph /  9.7km/h 74.6% 0.00in /  0mm 341 W/m2
10:49 64.9 °F /  18.3 °C 56.5 °F /  13.6 °C 30.02in /  1016.5hPa WNW 1.6mph /  2.6km/h 4mph /  6.4km/h 74% 0.00in /  0mm 341 W/m2
10:53 65.5 °F /  18.6 °C 56.7 °F /  13.7 °C 30.02in /  1016.5hPa WNW 2.7mph /  4.3km/h 7mph /  11.3km/h 73% 0.00in /  0mm 606 W/m2
10:59 65.3 °F /  18.5 °C 56 °F /  13.3 °C 30.02in /  1016.5hPa WNW 3.4mph /  5.5km/h 7mph /  11.3km/h 71.8% 0.00in /  0mm 413 W/m2
11:04 65.5 °F /  18.6 °C 56.1 °F /  13.4 °C 30.03in /  1016.8hPa WNW 2.5mph /  4km/h 5mph /  8km/h 71.6% 0.00in /  0mm 211 W/m2
11:09 65.4 °F /  18.6 °C 56.1 °F /  13.4 °C 30.03in /  1016.8hPa West 3.6mph /  5.8km/h 6mph /  9.7km/h 71.8% 0.00in /  0mm 267 W/m2
11:14 65.6 °F /  18.7 °C 56.3 °F /  13.5 °C 30.03in /  1016.8hPa West 3.3mph /  5.3km/h 6mph /  9.7km/h 72% 0.00in /  0mm 823 W/m2
11:19 65.8 °F /  18.8 °C 56.2 °F /  13.4 °C 30.03in /  1016.8hPa WNW 3.3mph /  5.3km/h 8mph /  12.9km/h 71.2% 0.00in /  0mm 816 W/m2
11:24 65.8 °F /  18.8 °C 56.1 °F /  13.4 °C 30.03in /  1016.8hPa NNW 3.3mph /  5.3km/h 8mph /  12.9km/h 71% 0.00in /  0mm 269 W/m2
11:29 65.8 °F /  18.8 °C 56.1 °F /  13.4 °C 30.03in /  1016.8hPa WNW 3.5mph /  5.6km/h 7mph /  11.3km/h 71% 0.00in /  0mm 392 W/m2
11:34 66.3 °F /  19.1 °C 56.6 °F /  13.7 °C 30.03in /  1016.8hPa West 2.1mph /  3.4km/h 6mph /  9.7km/h 71% 0.00in /  0mm 912 W/m2
11:39 67 °F /  19.4 °C 56.7 °F /  13.7 °C 30.03in /  1016.8hPa WNW 5.6mph /  9km/h 9mph /  14.5km/h 69.6% 0.00in /  0mm 942 W/m2
11:44 67.3 °F /  19.6 °C 56.3 °F /  13.5 °C 30.03in /  1016.8hPa West 2.8mph /  4.5km/h 8mph /  12.9km/h 67.8% 0.00in /  0mm 942 W/m2
11:49 67.6 °F /  19.8 °C 56.3 °F /  13.5 °C 30.03in /  1016.8hPa West 6.2mph /  10km/h 10mph /  16.1km/h 67.3% 0.00in /  0mm 297 W/m2
11:54 67.3 °F /  19.6 °C 56.6 °F /  13.7 °C 30.03in /  1016.8hPa NW 5.4mph /  8.7km/h 8mph /  12.9km/h 68.4% 0.00in /  0mm 810 W/m2
11:59 67.5 °F /  19.7 °C 56.8 °F /  13.8 °C 30.03in /  1016.8hPa NNW 7.2mph /  11.6km/h 13mph /  20.9km/h 68.4% 0.00in /  0mm 780 W/m2
12:04 67 °F /  19.4 °C 55.6 °F /  13.1 °C 30.03in /  1016.8hPa NW 4.7mph /  7.6km/h 12mph /  19.3km/h 67% 0.00in /  0mm 239 W/m2
12:09 66.9 °F /  19.4 °C 55.5 °F /  13.1 °C 30.03in /  1016.8hPa NNW 5.6mph /  9km/h 10mph /  16.1km/h 66.8% 0.00in /  0mm 819 W/m2
12:14 67.8 °F /  19.9 °C 55 °F /  12.8 °C 30.03in /  1016.8hPa NW 7.4mph /  11.9km/h 13mph /  20.9km/h 63.6% 0.00in /  0mm 847 W/m2
12:19 67.6 °F /  19.8 °C 54.1 °F /  12.3 °C 30.03in /  1016.8hPa WNW 7mph /  11.3km/h 14mph /  22.5km/h 62% 0.00in /  0mm 837 W/m2
12:24 67.3 °F /  19.6 °C 54.1 °F /  12.3 °C 30.04in /  1017.2hPa NW 7.6mph /  12.2km/h 14mph /  22.5km/h 62.6% 0.00in /  0mm 765 W/m2
12:29 67.9 °F /  19.9 °C 54.7 °F /  12.6 °C 30.04in /  1017.2hPa WNW 4.6mph /  7.4km/h 10mph /  16.1km/h 62.6% 0.00in /  0mm 842 W/m2
12:34 68.5 °F /  20.3 °C 53.9 °F /  12.2 °C 30.04in /  1017.2hPa WNW 5.8mph /  9.3km/h 12mph /  19.3km/h 59.6% 0.00in /  0mm 831 W/m2
12:39 68.8 °F /  20.4 °C 54.2 °F /  12.3 °C 30.04in /  1017.2hPa WNW 4.3mph /  6.9km/h 11mph /  17.7km/h 59.8% 0.00in /  0mm 756 W/m2
12:44 69.1 °F /  20.6 °C 54 °F /  12.2 °C 30.04in /  1017.2hPa WNW 6.9mph /  11.1km/h 13mph /  20.9km/h 58.6% 0.00in /  0mm 747 W/m2
12:49 68.8 °F /  20.4 °C 53.8 °F /  12.1 °C 30.04in /  1017.2hPa West 4.2mph /  6.8km/h 10mph /  16.1km/h 58.8% 0.00in /  0mm 710 W/m2
12:54 69.2 °F /  20.7 °C 54 °F /  12.2 °C 30.04in /  1017.2hPa West 7.4mph /  11.9km/h 12mph /  19.3km/h 58.6% 0.00in /  0mm 671 W/m2
12:59 69 °F /  20.6 °C 52.8 °F /  11.6 °C 30.04in /  1017.2hPa NW 9.4mph /  15.1km/h 16mph /  25.7km/h 56.4% 0.00in /  0mm 728 W/m2
13:04 68.5 °F /  20.3 °C 52.1 °F /  11.2 °C 30.04in /  1017.2hPa WNW 5.6mph /  9km/h 14mph /  22.5km/h 55.8% 0.00in /  0mm 656 W/m2
13:09 68.7 °F /  20.4 °C 52.4 °F /  11.3 °C 30.04in /  1017.2hPa NW 7.9mph /  12.7km/h 13mph /  20.9km/h 56.2% 0.00in /  0mm 784 W/m2
13:14 69.4 °F /  20.8 °C 53.4 °F /  11.9 °C 30.04in /  1017.2hPa North 5.2mph /  8.4km/h 12mph /  19.3km/h 56.6% 0.00in /  0mm 793 W/m2
13:19 69.4 °F /  20.8 °C 53.2 °F /  11.8 °C 30.04in /  1017.2hPa WNW 9mph /  14.5km/h 14mph /  22.5km/h 56.4% 0.00in /  0mm 747 W/m2
13:24 69.3 °F /  20.7 °C 53.4 °F /  11.9 °C 30.04in /  1017.2hPa WNW 7.4mph /  11.9km/h 12mph /  19.3km/h 57% 0.00in /  0mm 798 W/m2
13:29 69.4 °F /  20.8 °C 53.8 °F /  12.1 °C 30.04in /  1017.2hPa West 8.4mph /  13.5km/h 14mph /  22.5km/h 57.6% 0.00in /  0mm 849 W/m2
13:34 69.2 °F /  20.7 °C 53.5 °F /  11.9 °C 30.04in /  1017.2hPa WNW 6.6mph /  10.6km/h 14mph /  22.5km/h 57.6% 0.00in /  0mm 696 W/m2
13:39 69.3 °F /  20.7 °C 53.8 °F /  12.1 °C 30.04in /  1017.2hPa WNW 9.2mph /  14.8km/h 12mph /  19.3km/h 58% 0.00in /  0mm 657 W/m2
13:44 69.1 °F /  20.6 °C 54 °F /  12.2 °C 30.04in /  1017.2hPa WNW 6mph /  9.7km/h 15mph /  24.1km/h 58.8% 0.00in /  0mm 561 W/m2
13:49 68.6 °F /  20.3 °C 54 °F /  12.2 °C 30.04in /  1017.2hPa WNW 6.2mph /  10km/h 12mph /  19.3km/h 59.6% 0.00in /  0mm 357 W/m2
13:54 68.7 °F /  20.4 °C 54.1 °F /  12.3 °C 30.04in /  1017.2hPa WNW 5.2mph /  8.4km/h 11mph /  17.7km/h 59.6% 0.00in /  0mm 443 W/m2
13:59 68.9 °F /  20.5 °C 54.3 °F /  12.4 °C 30.04in /  1017.2hPa NW 5.5mph /  8.9km/h 11mph /  17.7km/h 59.5% 0.00in /  0mm 867 W/m2
14:04 69.5 °F /  20.8 °C 54 °F /  12.2 °C 30.04in /  1017.2hPa WNW 4.8mph /  7.7km/h 10mph /  16.1km/h 57.6% 0.00in /  0mm 867 W/m2
14:09 69.2 °F /  20.7 °C 53 °F /  11.7 °C 30.04in /  1017.2hPa NW 4.2mph /  6.8km/h 10mph /  16.1km/h 56.2% 0.00in /  0mm 696 W/m2
14:14 69.1 °F /  20.6 °C 52.9 °F /  11.6 °C 30.04in /  1017.2hPa NW 4.9mph /  7.9km/h 13mph /  20.9km/h 56.4% 0.00in /  0mm 728 W/m2
14:19 69.3 °F /  20.7 °C 52.4 °F /  11.3 °C 30.04in /  1017.2hPa WNW 5.9mph /  9.5km/h 13mph /  20.9km/h 55% 0.00in /  0mm 643 W/m2
14:24 69.1 °F /  20.6 °C 52.3 °F /  11.3 °C 30.04in /  1017.2hPa WNW 5.7mph /  9.2km/h 12mph /  19.3km/h 55.2% 0.00in /  0mm 392 W/m2
14:29 69.4 °F /  20.8 °C 52.8 °F /  11.6 °C 30.04in /  1017.2hPa WNW 6.4mph /  10.3km/h 9mph /  14.5km/h 55.6% 0.00in /  0mm 450 W/m2
14:34 69.3 °F /  20.7 °C 52.5 °F /  11.4 °C 30.04in /  1017.2hPa WNW 6.4mph /  10.3km/h 10mph /  16.1km/h 55.2% 0.00in /  0mm 417 W/m2
14:39 68.7 °F /  20.4 °C 52.1 °F /  11.2 °C 30.04in /  1017.2hPa NW 5.9mph /  9.5km/h 12mph /  19.3km/h 55.4% 0.00in /  0mm 417 W/m2
14:44 68.9 °F /  20.5 °C 52.5 °F /  11.4 °C 30.04in /  1017.2hPa WNW 5.2mph /  8.4km/h 12mph /  19.3km/h 56% 0.00in /  0mm 631 W/m2
14:49 69.4 °F /  20.8 °C 52.6 °F /  11.4 °C 30.04in /  1017.2hPa WNW 6.3mph /  10.1km/h 13mph /  20.9km/h 55.2% 0.00in /  0mm 712 W/m2
14:54 69.8 °F /  21 °C 52.8 °F /  11.6 °C 30.04in /  1017.2hPa WNW 4.9mph /  7.9km/h 15mph /  24.1km/h 54.8% 0.00in /  0mm 568 W/m2
14:59 69.4 °F /  20.8 °C 52.5 °F /  11.4 °C 30.04in /  1017.2hPa WNW 7.4mph /  11.9km/h 14mph /  22.5km/h 55% 0.00in /  0mm 554 W/m2
15:04 69.3 °F /  20.7 °C 52.3 °F /  11.3 °C 30.04in /  1017.2hPa WNW 6.2mph /  10km/h 9mph /  14.5km/h 55% 0.00in /  0mm 355 W/m2
15:09 69.3 °F /  20.7 °C 52.4 °F /  11.3 °C 30.04in /  1017.2hPa WNW 6.8mph /  10.9km/h 9mph /  14.5km/h 55% 0.00in /  0mm 628 W/m2
15:14 69.3 °F /  20.7 °C 51.9 °F /  11.1 °C 30.04in /  1017.2hPa WNW 7mph /  11.3km/h 11mph /  17.7km/h 53.8% 0.00in /  0mm 592 W/m2
15:19 68.7 °F /  20.4 °C 51.8 °F /  11 °C 30.04in /  1017.2hPa WNW 8mph /  12.9km/h 14mph /  22.5km/h 54.8% 0.00in /  0mm 392 W/m2
15:24 68.7 °F /  20.4 °C 52 °F /  11.1 °C 30.04in /  1017.2hPa NW 6mph /  9.7km/h 12mph /  19.3km/h 55.2% 0.00in /  0mm 584 W/m2
15:29 69.2 °F /  20.7 °C 52 °F /  11.1 °C 30.05in /  1017.5hPa WNW 4.5mph /  7.2km/h 9mph /  14.5km/h 54.4% 0.00in /  0mm 664 W/m2
15:34 69.1 °F /  20.6 °C 51.8 °F /  11 °C 30.04in /  1017.2hPa WNW 7.2mph /  11.6km/h 14mph /  22.5km/h 54% 0.00in /  0mm 374 W/m2
15:39 69 °F /  20.6 °C 51.7 °F /  10.9 °C 30.04in /  1017.2hPa NW 4.7mph /  7.6km/h 11mph /  17.7km/h 54% 0.00in /  0mm 311 W/m2
15:44 69 °F /  20.6 °C 51.6 °F /  10.9 °C 30.04in /  1017.2hPa WNW 5.3mph /  8.5km/h 11mph /  17.7km/h 53.8% 0.00in /  0mm 327 W/m2
15:49 68.9 °F /  20.5 °C 51.3 °F /  10.7 °C 30.04in /  1017.2hPa WNW 3mph /  4.8km/h 10mph /  16.1km/h 53.4% 0.00in /  0mm 346 W/m2
15:54 69.4 °F /  20.8 °C 52.1 °F /  11.2 °C 30.04in /  1017.2hPa NW 4.9mph /  7.9km/h 8mph /  12.9km/h 54% 0.00in /  0mm 612 W/m2
15:59 70 °F /  21.1 °C 52.1 °F /  11.2 °C 30.04in /  1017.2hPa NW 5.8mph /  9.3km/h 11mph /  17.7km/h 53% 0.00in /  0mm 708 W/m2
16:04 70.3 °F /  21.3 °C 51.9 °F /  11.1 °C 30.04in /  1017.2hPa West 6.2mph /  10km/h 11mph /  17.7km/h 52.2% 0.00in /  0mm 629 W/m2
16:09 70.1 °F /  21.2 °C 51.6 °F /  10.9 °C 30.04in /  1017.2hPa West 3.8mph /  6.1km/h 12mph /  19.3km/h 51.8% 0.00in /  0mm 531 W/m2
16:14 69.9 °F /  21.1 °C 51.6 °F /  10.9 °C 30.04in /  1017.2hPa West 5mph /  8km/h 12mph /  19.3km/h 52.2% 0.00in /  0mm 557 W/m2
16:19 70.4 °F /  21.3 °C 51.8 °F /  11 °C 30.04in /  1017.2hPa North 5.9mph /  9.5km/h 10mph /  16.1km/h 51.8% 0.00in /  0mm 633 W/m2
16:24 70.4 °F /  21.3 °C 51.3 °F /  10.7 °C 30.04in /  1017.2hPa NNW 3.8mph /  6.1km/h 10mph /  16.1km/h 50.8% 0.00in /  0mm 633 W/m2
16:29 70.3 °F /  21.3 °C 51.5 °F /  10.8 °C 30.04in /  1017.2hPa NW 4.9mph /  7.9km/h 10mph /  16.1km/h 51.2% 0.00in /  0mm 643 W/m2
16:34 70.3 °F /  21.3 °C 51.3 °F /  10.7 °C 30.04in /  1017.2hPa NW 5.9mph /  9.5km/h 11mph /  17.7km/h 50.8% 0.00in /  0mm 527 W/m2
16:39 70.3 °F /  21.3 °C 51.4 °F /  10.8 °C 30.04in /  1017.2hPa WNW 4.7mph /  7.6km/h 11mph /  17.7km/h 51% 0.00in /  0mm 596 W/m2
16:44 70.5 °F /  21.4 °C 51.2 °F /  10.7 °C 30.04in /  1017.2hPa WNW 3.7mph /  6km/h 12mph /  19.3km/h 50.6% 0.00in /  0mm 629 W/m2
16:49 70.9 °F /  21.6 °C 51.6 °F /  10.9 °C 30.04in /  1017.2hPa NW 4.4mph /  7.1km/h 12mph /  19.3km/h 50.6% 0.00in /  0mm 629 W/m2
16:54 70.5 °F /  21.4 °C 51 °F /  10.6 °C 30.04in /  1017.2hPa NNW 5.5mph /  8.9km/h 11mph /  17.7km/h 50% 0.00in /  0mm 548 W/m2
16:59 70.3 °F /  21.3 °C 51 °F /  10.6 °C 30.04in /  1017.2hPa NW 5.5mph /  8.9km/h 11mph /  17.7km/h 50.3% 0.00in /  0mm 578 W/m2
17:04 70.4 °F /  21.3 °C 51.2 °F /  10.7 °C 30.04in /  1017.2hPa NW 3.2mph /  5.1km/h 8mph /  12.9km/h 50.6% 0.00in /  0mm 504 W/m2
17:09 70.8 °F /  21.6 °C 51.2 °F /  10.7 °C 30.04in /  1017.2hPa NNW 4.6mph /  7.4km/h 9mph /  14.5km/h 50% 0.00in /  0mm 237 W/m2
17:14 70.5 °F /  21.4 °C 50.9 °F /  10.5 °C 30.04in /  1017.2hPa North 4.6mph /  7.4km/h 9mph /  14.5km/h 50% 0.00in /  0mm 239 W/m2
17:19 70.2 °F /  21.2 °C 50.7 °F /  10.4 °C 30.04in /  1017.2hPa NNW 5.4mph /  8.7km/h 10mph /  16.1km/h 50% 0.00in /  0mm 388 W/m2
17:24 69.5 °F /  20.8 °C 50.6 °F /  10.3 °C 30.04in /  1017.2hPa NNW 5mph /  8km/h 9mph /  14.5km/h 51% 0.00in /  0mm 181 W/m2
17:29 69.1 °F /  20.6 °C 50.2 °F /  10.1 °C 30.04in /  1017.2hPa NW 3.3mph /  5.3km/h 10mph /  16.1km/h 51% 0.00in /  0mm 223 W/m2
17:34 69.3 °F /  20.7 °C 50.4 °F /  10.2 °C 30.04in /  1017.2hPa NW 2.9mph /  4.7km/h 6mph /  9.7km/h 51% 0.00in /  0mm 608 W/m2
17:39 70.2 °F /  21.2 °C 50.8 °F /  10.4 °C 30.04in /  1017.2hPa NNW 1.5mph /  2.4km/h 5mph /  8km/h 50.2% 0.00in /  0mm 561 W/m2
17:44 71.5 °F /  21.9 °C 51 °F /  10.6 °C 30.04in /  1017.2hPa North 4.6mph /  7.4km/h 11mph /  17.7km/h 48.4% 0.00in /  0mm 552 W/m2
17:49 72.3 °F /  22.4 °C 50.7 °F /  10.4 °C 30.04in /  1017.2hPa NNE 3.6mph /  5.8km/h 11mph /  17.7km/h 46.6% 0.00in /  0mm 543 W/m2
17:54 72.7 °F /  22.6 °C 50.2 °F /  10.1 °C 30.04in /  1017.2hPa NNE 4.3mph /  6.9km/h 8mph /  12.9km/h 45% 0.00in /  0mm 519 W/m2
17:59 72.9 °F /  22.7 °C 50.1 °F /  10.1 °C 30.04in /  1017.2hPa North 3mph /  4.8km/h 7mph /  11.3km/h 44.6% 0.00in /  0mm 454 W/m2
18:04 72.9 °F /  22.7 °C 50.4 °F /  10.2 °C 30.04in /  1017.2hPa NNE 4.8mph /  7.7km/h 8mph /  12.9km/h 45% 0.00in /  0mm 441 W/m2
18:09 73.1 °F /  22.8 °C 49.8 °F /  9.9 °C 30.04in /  1017.2hPa North 1.5mph /  2.4km/h 6mph /  9.7km/h 44% 0.00in /  0mm 408 W/m2
18:14 73.4 °F /  23 °C 50.3 °F /  10.2 °C 30.04in /  1017.2hPa NW 1.5mph /  2.4km/h 5mph /  8km/h 44.3% 0.00in /  0mm 446 W/m2
18:19 72.9 °F /  22.7 °C 50.5 °F /  10.3 °C 30.04in /  1017.2hPa NW 4.4mph /  7.1km/h 8mph /  12.9km/h 45.2% 0.00in /  0mm 459 W/m2
18:24 72.7 °F /  22.6 °C 50.4 °F /  10.2 °C 30.04in /  1017.2hPa NNE 2.7mph /  4.3km/h 6mph /  9.7km/h 45.4% 0.00in /  0mm 450 W/m2
18:29 73.5 °F /  23.1 °C 51.1 °F /  10.6 °C 30.04in /  1017.2hPa NE 6.1mph /  9.8km/h 10mph /  16.1km/h 45.4% 0.00in /  0mm 452 W/m2
18:34 73.6 °F /  23.1 °C 50.3 °F /  10.2 °C 30.04in /  1017.2hPa North 3.7mph /  6km/h 10mph /  16.1km/h 44% 0.00in /  0mm 378 W/m2
18:39 72.9 °F /  22.7 °C 50.2 °F /  10.1 °C 30.04in /  1017.2hPa NE 2.5mph /  4km/h 6mph /  9.7km/h 44.8% 0.00in /  0mm 186 W/m2
18:44 72.9 °F /  22.7 °C 50.6 °F /  10.3 °C 30.04in /  1017.2hPa North 1.7mph /  2.7km/h 5mph /  8km/h 45.4% 0.00in /  0mm 220 W/m2
18:49 72.5 °F /  22.5 °C 50.3 °F /  10.2 °C 30.05in /  1017.5hPa NNE 5mph /  8km/h 9mph /  14.5km/h 45.6% 0.00in /  0mm 357 W/m2
18:54 72.1 °F /  22.3 °C 49.8 °F /  9.9 °C 30.05in /  1017.5hPa NNW 3.1mph /  5km/h 7mph /  11.3km/h 45.4% 0.00in /  0mm 348 W/m2
18:59 71.9 °F /  22.2 °C 50.7 °F /  10.4 °C 30.05in /  1017.5hPa NNW 4.4mph /  7.1km/h 12mph /  19.3km/h 47.2% 0.00in /  0mm 316 W/m2
19:04 71.9 °F /  22.2 °C 51.2 °F /  10.7 °C 30.05in /  1017.5hPa NNW 7.2mph /  11.6km/h 10mph /  16.1km/h 48% 0.00in /  0mm 285 W/m2
19:09 71.1 °F /  21.7 °C 50.9 °F /  10.5 °C 30.05in /  1017.5hPa NW 5.3mph /  8.5km/h 11mph /  17.7km/h 49% 0.00in /  0mm 253 W/m2
19:14 70.5 °F /  21.4 °C 50.9 °F /  10.5 °C 30.05in /  1017.5hPa NW 5.6mph /  9km/h 11mph /  17.7km/h 50% 0.00in /  0mm 248 W/m2
19:19 70 °F /  21.1 °C 50.9 °F /  10.5 °C 30.05in /  1017.5hPa NW 6.1mph /  9.8km/h 11mph /  17.7km/h 50.6% 0.00in /  0mm 151 W/m2
19:24 69.4 °F /  20.8 °C 50.9 °F /  10.5 °C 30.05in /  1017.5hPa WNW 5.2mph /  8.4km/h 13mph /  20.9km/h 51.8% 0.00in /  0mm 109 W/m2
19:29 69.2 °F /  20.7 °C 51.2 °F /  10.7 °C 30.05in /  1017.5hPa North 7.4mph /  11.9km/h 12mph /  19.3km/h 52.6% 0.00in /  0mm 95 W/m2
19:34 68.9 °F /  20.5 °C 51.5 °F /  10.8 °C 30.06in /  1017.8hPa NW 3.7mph /  6km/h 11mph /  17.7km/h 53.8% 0.00in /  0mm 104 W/m2
19:39 68.8 °F /  20.4 °C 52 °F /  11.1 °C 30.06in /  1017.8hPa NNW 8mph /  12.9km/h 12mph /  19.3km/h 55% 0.00in /  0mm 77 W/m2
19:44 68.5 °F /  20.3 °C 52 °F /  11.1 °C 30.06in /  1017.8hPa North 4.5mph /  7.2km/h 12mph /  19.3km/h 55.8% 0.00in /  0mm 65 W/m2
19:49 68 °F /  20 °C 52 °F /  11.1 °C 30.06in /  1017.8hPa North 4.5mph /  7.2km/h 10mph /  16.1km/h 56.6% 0.00in /  0mm 72 W/m2
19:54 67.6 °F /  19.8 °C 51.8 °F /  11 °C 30.06in /  1017.8hPa North 5.6mph /  9km/h 9mph /  14.5km/h 57% 0.00in /  0mm 76 W/m2
19:59 67.4 °F /  19.7 °C 52 °F /  11.1 °C 30.06in /  1017.8hPa NNW 6mph /  9.7km/h 9mph /  14.5km/h 57.8% 0.00in /  0mm 42 W/m2
20:04 67.2 °F /  19.6 °C 51.9 °F /  11.1 °C 30.06in /  1017.8hPa North 5.6mph /  9km/h 9mph /  14.5km/h 58% 0.00in /  0mm 56 W/m2
20:09 67.4 °F /  19.7 °C 52.1 °F /  11.2 °C 30.07in /  1018.2hPa NNW 4.7mph /  7.6km/h 8mph /  12.9km/h 58% 0.00in /  0mm 53 W/m2
20:14 67.4 °F /  19.7 °C 52.1 °F /  11.2 °C 30.07in /  1018.2hPa North 3.9mph /  6.3km/h 7mph /  11.3km/h 58% 0.00in /  0mm 42 W/m2
20:19 67.5 °F /  19.7 °C 52.2 °F /  11.2 °C 30.07in /  1018.2hPa North 4.5mph /  7.2km/h 9mph /  14.5km/h 58% 0.00in /  0mm 32 W/m2
20:24 66.9 °F /  19.4 °C 51.9 °F /  11.1 °C 30.07in /  1018.2hPa North 4.8mph /  7.7km/h 8mph /  12.9km/h 58.6% 0.00in /  0mm 21 W/m2
20:29 66.4 °F /  19.1 °C 52 °F /  11.1 °C 30.07in /  1018.2hPa NNW 4.9mph /  7.9km/h 12mph /  19.3km/h 59.8% 0.00in /  0mm 18 W/m2
20:34 65.8 °F /  18.8 °C 51.8 °F /  11 °C 30.07in /  1018.2hPa North 3.1mph /  5km/h 9mph /  14.5km/h 60.6% 0.00in /  0mm 14 W/m2
20:39 65.5 °F /  18.6 °C 51.8 °F /  11 °C 30.07in /  1018.2hPa NNW 4mph /  6.4km/h 7mph /  11.3km/h 61.4% 0.00in /  0mm 12 W/m2
20:44 65.1 °F /  18.4 °C 51.8 °F /  11 °C 30.07in /  1018.2hPa North 1.7mph /  2.7km/h 7mph /  11.3km/h 62% 0.00in /  0mm 9 W/m2
20:49 64.9 °F /  18.3 °C 51.8 °F /  11 °C 30.08in /  1018.5hPa North 3.7mph /  6km/h 6mph /  9.7km/h 62.8% 0.00in /  0mm 7 W/m2
20:54 64.6 °F /  18.1 °C 51.8 °F /  11 °C 30.08in /  1018.5hPa NNW 2.4mph /  3.9km/h 5mph /  8km/h 63.2% 0.00in /  0mm 5 W/m2
20:59 64.2 °F /  17.9 °C 51.8 °F /  11 °C 30.08in /  1018.5hPa NNW 3.2mph /  5.1km/h 7mph /  11.3km/h 64% 0.00in /  0mm 0 W/m2
21:04 63.9 °F /  17.7 °C 51.9 °F /  11.1 °C 30.08in /  1018.5hPa NW 3.2mph /  5.1km/h 6mph /  9.7km/h 65% 0.00in /  0mm 0 W/m2
21:09 63.8 °F /  17.7 °C 51.9 °F /  11.1 °C 30.09in /  1018.8hPa NNW 3.2mph /  5.1km/h 6mph /  9.7km/h 65.4% 0.00in /  0mm 0 W/m2
21:14 63.5 °F /  17.5 °C 52 °F /  11.1 °C 30.09in /  1018.8hPa NW 2.8mph /  4.5km/h 6mph /  9.7km/h 66% 0.00in /  0mm 0 W/m2
21:19 63.3 °F /  17.4 °C 51.8 °F /  11 °C 30.09in /  1018.8hPa NNW 3.3mph /  5.3km/h 6mph /  9.7km/h 66% 0.00in /  0mm 0 W/m2
21:24 63.1 °F /  17.3 °C 51.9 °F /  11.1 °C 30.09in /  1018.8hPa NNW 2.4mph /  3.9km/h 6mph /  9.7km/h 66.8% 0.00in /  0mm 0 W/m2
21:29 63.1 °F /  17.3 °C 51.9 °F /  11.1 °C 30.09in /  1018.8hPa NNW 1.7mph /  2.7km/h 4mph /  6.4km/h 67% 0.00in /  0mm 0 W/m2
21:34 62.9 °F /  17.2 °C 51.7 °F /  10.9 °C 30.09in /  1018.8hPa NW 3.2mph /  5.1km/h 6mph /  9.7km/h 67% 0.00in /  0mm 0 W/m2
21:39 62.6 °F /  17 °C 51.4 °F /  10.8 °C 30.09in /  1018.8hPa NNW 3.5mph /  5.6km/h 8mph /  12.9km/h 67% 0.00in /  0mm 0 W/m2
21:44 62.4 °F /  16.9 °C 51.3 °F /  10.7 °C 30.10in /  1019.2hPa NNW 3.2mph /  5.1km/h 8mph /  12.9km/h 67% 0.00in /  0mm 0 W/m2
21:49 62.3 °F /  16.8 °C 51.2 °F /  10.7 °C 30.10in /  1019.2hPa North 5.1mph /  8.2km/h 9mph /  14.5km/h 67% 0.00in /  0mm 0 W/m2
21:54 62.1 °F /  16.7 °C 51 °F /  10.6 °C 30.10in /  1019.2hPa NW 4mph /  6.4km/h 8mph /  12.9km/h 67% 0.00in /  0mm 0 W/m2
21:59 62.1 °F /  16.7 °C 50.9 °F /  10.5 °C 30.11in /  1019.5hPa NNW 5.1mph /  8.2km/h 9mph /  14.5km/h 67% 0.00in /  0mm 0 W/m2
22:04 61.9 °F /  16.6 °C 50.7 °F /  10.4 °C 30.11in /  1019.5hPa NNW 2.4mph /  3.9km/h 8mph /  12.9km/h 67% 0.00in /  0mm 0 W/m2
22:09 61.9 °F /  16.6 °C 50.7 °F /  10.4 °C 30.11in /  1019.5hPa North 2.8mph /  4.5km/h 6mph /  9.7km/h 67% 0.00in /  0mm 0 W/m2
22:14 61.6 °F /  16.4 °C 50.6 °F /  10.3 °C 30.11in /  1019.5hPa NW 2.5mph /  4km/h 6mph /  9.7km/h 67% 0.00in /  0mm 0 W/m2
22:19 61.5 °F /  16.4 °C 50.5 °F /  10.3 °C 30.11in /  1019.5hPa NNW 3.1mph /  5km/h 7mph /  11.3km/h 67% 0.00in /  0mm 0 W/m2
22:24 61.3 °F /  16.3 °C 50.7 °F /  10.4 °C 30.11in /  1019.5hPa WNW 2.6mph /  4.2km/h 7mph /  11.3km/h 68% 0.00in /  0mm 0 W/m2
22:29 61.2 °F /  16.2 °C 50.6 °F /  10.3 °C 30.11in /  1019.5hPa NW 3.3mph /  5.3km/h 6mph /  9.7km/h 68% 0.00in /  0mm 0 W/m2
22:34 61.2 °F /  16.2 °C 50.5 °F /  10.3 °C 30.11in /  1019.5hPa NNW 1.3mph /  2.1km/h 4mph /  6.4km/h 68% 0.00in /  0mm 0 W/m2
22:39 61 °F /  16.1 °C 50.4 °F /  10.2 °C 30.12in /  1019.9hPa NNW 2.8mph /  4.5km/h 4mph /  6.4km/h 68% 0.00in /  0mm 0 W/m2
22:44 61 °F /  16.1 °C 50 °F /  10 °C 30.12in /  1019.9hPa NW 2.4mph /  3.9km/h 7mph /  11.3km/h 67% 0.00in /  0mm 0 W/m2
22:49 60.8 °F /  16 °C 49.8 °F /  9.9 °C 30.12in /  1019.9hPa NW 2.4mph /  3.9km/h 4mph /  6.4km/h 67% 0.00in /  0mm 0 W/m2
22:54 60.6 °F /  15.9 °C 49.6 °F /  9.8 °C 30.12in /  1019.9hPa NW 1.4mph /  2.3km/h 3mph /  4.8km/h 67% 0.00in /  0mm 0 W/m2
22:59 60.5 °F /  15.8 °C 49.5 °F /  9.7 °C 30.12in /  1019.9hPa NW 0.9mph /  1.4km/h 3mph /  4.8km/h 67% 0.00in /  0mm 0 W/m2
23:04 60.4 °F /  15.8 °C 49.5 °F /  9.7 °C 30.12in /  1019.9hPa NW 1.7mph /  2.7km/h 4mph /  6.4km/h 67% 0.00in /  0mm 0 W/m2
23:09 60.2 °F /  15.7 °C 49.2 °F /  9.6 °C 30.12in /  1019.9hPa NW 2.3mph /  3.7km/h 5mph /  8km/h 67% 0.00in /  0mm 0 W/m2
23:14 59.9 °F /  15.5 °C 48.9 °F /  9.4 °C 30.12in /  1019.9hPa NW 1.6mph /  2.6km/h 5mph /  8km/h 67% 0.00in /  0mm 0 W/m2
23:19 59.7 °F /  15.4 °C 48.7 °F /  9.3 °C 30.12in /  1019.9hPa NW 0.8mph /  1.3km/h 3mph /  4.8km/h 67% 0.00in /  0mm 0 W/m2
23:24 59.6 °F /  15.3 °C 48.6 °F /  9.2 °C 30.13in /  1020.2hPa Calm   3mph /  4.8km/h 67% 0.00in /  0mm 0 W/m2
23:29 59.5 °F /  15.3 °C 48.6 °F /  9.2 °C 30.13in /  1020.2hPa NW 0.4mph /  0.6km/h 3mph /  4.8km/h 67% 0.00in /  0mm 0 W/m2
23:34 59.4 °F /  15.2 °C 48.5 °F /  9.2 °C 30.13in /  1020.2hPa NW 1.3mph /  2.1km/h 4mph /  6.4km/h 67% 0.00in /  0mm 0 W/m2
23:39 59.3 °F /  15.2 °C 47.8 °F /  8.8 °C 30.13in /  1020.2hPa NW 1.2mph /  1.9km/h 4mph /  6.4km/h 66% 0.00in /  0mm 0 W/m2
23:44 59.2 °F /  15.1 °C 47.9 °F /  8.8 °C 30.13in /  1020.2hPa NW 0.9mph /  1.4km/h 3mph /  4.8km/h 66.4% 0.00in /  0mm 0 W/m2
23:49 59 °F /  15 °C 48 °F /  8.9 °C 30.13in /  1020.2hPa NW 0.4mph /  0.6km/h 2mph /  3.2km/h 66.8% 0.00in /  0mm 0 W/m2
23:54 59 °F /  15 °C 47.9 °F /  8.8 °C 30.13in /  1020.2hPa NW 1.8mph /  2.9km/h 4mph /  6.4km/h 66.8% 0.00in /  0mm 0 W/m2
23:59 58.9 °F /  14.9 °C 47.6 °F /  8.7 °C 30.13in /  1020.2hPa NW 1.3mph /  2.1km/h 4mph /  6.4km/h 66% 0.00in /  0mm 0 W/m2
Bath Spa Weather
Compliments of Weather Underground - 2 mb